sensor_id;sensor_type;location;lat;lon;timestamp;temperature;humidity
84807;DHT22;75042;43.504;3.714;2024-02-26T00:01:42;7.30;99.90
84807;DHT22;75042;43.504;3.714;2024-02-26T00:04:09;7.30;99.90
84807;DHT22;75042;43.504;3.714;2024-02-26T00:06:34;7.30;99.90
84807;DHT22;75042;43.504;3.714;2024-02-26T00:09:00;7.30;99.90
84807;DHT22;75042;43.504;3.714;2024-02-26T00:11:27;7.40;99.90
84807;DHT22;75042;43.504;3.714;2024-02-26T00:13:53;7.50;99.90
84807;DHT22;75042;43.504;3.714;2024-02-26T00:16:19;7.50;99.90
84807;DHT22;75042;43.504;3.714;2024-02-26T00:18:44;7.50;99.90
84807;DHT22;75042;43.504;3.714;2024-02-26T00:21:10;7.50;99.90
84807;DHT22;75042;43.504;3.714;2024-02-26T00:23:36;7.50;99.90
84807;DHT22;75042;43.504;3.714;2024-02-26T00:26:01;7.50;99.90
84807;DHT22;75042;43.504;3.714;2024-02-26T00:28:27;7.40;99.90
84807;DHT22;75042;43.504;3.714;2024-02-26T00:30:54;7.40;99.90
84807;DHT22;75042;43.504;3.714;2024-02-26T00:33:21;7.30;99.90
84807;DHT22;75042;43.504;3.714;2024-02-26T00:35:47;7.30;99.90
84807;DHT22;75042;43.504;3.714;2024-02-26T00:38:13;7.30;99.90
84807;DHT22;75042;43.504;3.714;2024-02-26T00:40:38;7.30;99.90
84807;DHT22;75042;43.504;3.714;2024-02-26T00:43:04;7.30;99.90
84807;DHT22;75042;43.504;3.714;2024-02-26T00:45:30;7.30;99.90
84807;DHT22;75042;43.504;3.714;2024-02-26T00:47:57;7.30;99.90
84807;DHT22;75042;43.504;3.714;2024-02-26T00:50:23;7.40;99.90
84807;DHT22;75042;43.504;3.714;2024-02-26T00:52:48;7.30;99.90
84807;DHT22;75042;43.504;3.714;2024-02-26T00:55:14;7.40;99.90
84807;DHT22;75042;43.504;3.714;2024-02-26T00:57:39;7.30;99.90
84807;DHT22;75042;43.504;3.714;2024-02-26T01:00:06;7.30;99.90
84807;DHT22;75042;43.504;3.714;2024-02-26T01:02:34;7.40;99.90
84807;DHT22;75042;43.504;3.714;2024-02-26T01:05:07;7.40;99.90
84807;DHT22;75042;43.504;3.714;2024-02-26T01:07:34;7.40;99.90
84807;DHT22;75042;43.504;3.714;2024-02-26T01:10:01;7.30;99.90
84807;DHT22;75042;43.504;3.714;2024-02-26T01:12:27;7.30;99.90
84807;DHT22;75042;43.504;3.714;2024-02-26T01:14:53;7.30;99.90
84807;DHT22;75042;43.504;3.714;2024-02-26T01:17:18;7.40;99.90
84807;DHT22;75042;43.504;3.714;2024-02-26T01:19:44;7.30;99.90
84807;DHT22;75042;43.504;3.714;2024-02-26T01:22:09;7.30;99.90
84807;DHT22;75042;43.504;3.714;2024-02-26T01:24:35;7.30;99.90
84807;DHT22;75042;43.504;3.714;2024-02-26T01:27:00;7.40;99.90
84807;DHT22;75042;43.504;3.714;2024-02-26T01:29:26;7.40;99.90
84807;DHT22;75042;43.504;3.714;2024-02-26T01:31:51;7.50;99.90
84807;DHT22;75042;43.504;3.714;2024-02-26T01:34:17;7.50;99.90
84807;DHT22;75042;43.504;3.714;2024-02-26T01:36:43;7.50;99.90
84807;DHT22;75042;43.504;3.714;2024-02-26T01:39:11;7.40;99.90
84807;DHT22;75042;43.504;3.714;2024-02-26T01:41:38;7.40;99.90
84807;DHT22;75042;43.504;3.714;2024-02-26T01:44:04;7.30;99.90
84807;DHT22;75042;43.504;3.714;2024-02-26T01:46:30;7.30;99.90
84807;DHT22;75042;43.504;3.714;2024-02-26T01:48:56;7.30;99.90
84807;DHT22;75042;43.504;3.714;2024-02-26T01:51:22;7.30;99.90
84807;DHT22;75042;43.504;3.714;2024-02-26T01:53:48;7.20;99.90
84807;DHT22;75042;43.504;3.714;2024-02-26T01:56:14;7.20;99.90
84807;DHT22;75042;43.504;3.714;2024-02-26T01:58:40;7.10;99.90
84807;DHT22;75042;43.504;3.714;2024-02-26T02:01:06;7.10;99.90
84807;DHT22;75042;43.504;3.714;2024-02-26T02:03:33;7.10;99.90
84807;DHT22;75042;43.504;3.714;2024-02-26T02:05:59;7.10;99.90
84807;DHT22;75042;43.504;3.714;2024-02-26T02:08:24;7.10;99.90
84807;DHT22;75042;43.504;3.714;2024-02-26T02:10:50;7.00;99.90
84807;DHT22;75042;43.504;3.714;2024-02-26T02:13:16;7.10;99.90
84807;DHT22;75042;43.504;3.714;2024-02-26T02:15:41;7.10;99.90
84807;DHT22;75042;43.504;3.714;2024-02-26T02:18:07;7.10;99.90
84807;DHT22;75042;43.504;3.714;2024-02-26T02:20:33;7.10;99.90
84807;DHT22;75042;43.504;3.714;2024-02-26T02:22:59;7.20;99.90
84807;DHT22;75042;43.504;3.714;2024-02-26T02:25:25;7.20;99.90
84807;DHT22;75042;43.504;3.714;2024-02-26T02:27:51;7.20;99.90
84807;DHT22;75042;43.504;3.714;2024-02-26T02:30:17;7.20;99.90
84807;DHT22;75042;43.504;3.714;2024-02-26T02:32:42;7.20;99.90
84807;DHT22;75042;43.504;3.714;2024-02-26T02:35:08;7.20;99.90
84807;DHT22;75042;43.504;3.714;2024-02-26T02:37:34;7.20;99.90
84807;DHT22;75042;43.504;3.714;2024-02-26T02:40:00;7.20;99.90
84807;DHT22;75042;43.504;3.714;2024-02-26T02:42:25;7.20;99.90
84807;DHT22;75042;43.504;3.714;2024-02-26T02:44:51;7.20;99.90
84807;DHT22;75042;43.504;3.714;2024-02-26T02:47:17;7.20;99.90
84807;DHT22;75042;43.504;3.714;2024-02-26T02:49:42;7.20;99.90
84807;DHT22;75042;43.504;3.714;2024-02-26T02:52:08;7.20;99.90
84807;DHT22;75042;43.504;3.714;2024-02-26T02:54:33;7.20;99.90
84807;DHT22;75042;43.504;3.714;2024-02-26T02:56:59;7.20;99.90
84807;DHT22;75042;43.504;3.714;2024-02-26T02:59:25;7.20;99.90
84807;DHT22;75042;43.504;3.714;2024-02-26T03:01:50;7.20;99.90
84807;DHT22;75042;43.504;3.714;2024-02-26T03:04:16;7.20;99.90
84807;DHT22;75042;43.504;3.714;2024-02-26T03:06:41;7.20;99.90
84807;DHT22;75042;43.504;3.714;2024-02-26T03:09:07;7.20;99.90
84807;DHT22;75042;43.504;3.714;2024-02-26T03:11:32;7.20;99.90
84807;DHT22;75042;43.504;3.714;2024-02-26T03:13:58;7.20;99.90
84807;DHT22;75042;43.504;3.714;2024-02-26T03:16:24;7.20;99.90
84807;DHT22;75042;43.504;3.714;2024-02-26T03:18:49;7.20;99.90
84807;DHT22;75042;43.504;3.714;2024-02-26T03:21:15;7.20;99.90
84807;DHT22;75042;43.504;3.714;2024-02-26T03:23:40;7.20;99.90
84807;DHT22;75042;43.504;3.714;2024-02-26T03:26:06;7.20;99.90
84807;DHT22;75042;43.504;3.714;2024-02-26T03:28:31;7.20;99.90
84807;DHT22;75042;43.504;3.714;2024-02-26T03:31:01;7.20;99.90
84807;DHT22;75042;43.504;3.714;2024-02-26T03:33:27;7.20;99.90
84807;DHT22;75042;43.504;3.714;2024-02-26T03:35:53;7.30;99.90
84807;DHT22;75042;43.504;3.714;2024-02-26T03:38:18;7.30;99.90
84807;DHT22;75042;43.504;3.714;2024-02-26T03:40:44;7.30;99.90
84807;DHT22;75042;43.504;3.714;2024-02-26T03:43:09;7.30;99.90
84807;DHT22;75042;43.504;3.714;2024-02-26T03:45:35;7.30;99.90
84807;DHT22;75042;43.504;3.714;2024-02-26T03:48:00;7.30;99.90
84807;DHT22;75042;43.504;3.714;2024-02-26T03:50:26;7.30;99.90
84807;DHT22;75042;43.504;3.714;2024-02-26T03:52:51;7.30;99.90
84807;DHT22;75042;43.504;3.714;2024-02-26T03:55:17;7.30;99.90
84807;DHT22;75042;43.504;3.714;2024-02-26T03:57:46;7.30;99.90
84807;DHT22;75042;43.504;3.714;2024-02-26T04:00:12;7.30;99.90
84807;DHT22;75042;43.504;3.714;2024-02-26T04:02:37;7.40;99.90
84807;DHT22;75042;43.504;3.714;2024-02-26T04:05:03;7.40;99.90
84807;DHT22;75042;43.504;3.714;2024-02-26T04:07:29;7.40;99.90
84807;DHT22;75042;43.504;3.714;2024-02-26T04:09:55;7.40;99.90
84807;DHT22;75042;43.504;3.714;2024-02-26T04:12:20;7.40;99.90
84807;DHT22;75042;43.504;3.714;2024-02-26T04:14:46;7.40;99.90
84807;DHT22;75042;43.504;3.714;2024-02-26T04:17:11;7.40;99.90
84807;DHT22;75042;43.504;3.714;2024-02-26T04:19:37;7.40;99.90
84807;DHT22;75042;43.504;3.714;2024-02-26T04:22:02;7.40;99.90
84807;DHT22;75042;43.504;3.714;2024-02-26T04:24:28;7.40;99.90
84807;DHT22;75042;43.504;3.714;2024-02-26T04:26:54;7.30;99.90
84807;DHT22;75042;43.504;3.714;2024-02-26T04:29:19;7.20;99.90
84807;DHT22;75042;43.504;3.714;2024-02-26T04:31:45;7.10;99.90
84807;DHT22;75042;43.504;3.714;2024-02-26T04:34:12;7.10;99.90
84807;DHT22;75042;43.504;3.714;2024-02-26T04:36:37;7.10;99.90
84807;DHT22;75042;43.504;3.714;2024-02-26T04:39:03;7.10;99.90
84807;DHT22;75042;43.504;3.714;2024-02-26T04:41:28;7.10;99.90
84807;DHT22;75042;43.504;3.714;2024-02-26T04:43:54;7.20;99.90
84807;DHT22;75042;43.504;3.714;2024-02-26T04:46:19;7.20;99.90
84807;DHT22;75042;43.504;3.714;2024-02-26T04:48:47;7.20;99.90
84807;DHT22;75042;43.504;3.714;2024-02-26T04:51:12;7.20;99.90
84807;DHT22;75042;43.504;3.714;2024-02-26T04:53:38;7.30;99.90
84807;DHT22;75042;43.504;3.714;2024-02-26T04:56:04;7.30;99.90
84807;DHT22;75042;43.504;3.714;2024-02-26T04:58:29;7.30;99.90
84807;DHT22;75042;43.504;3.714;2024-02-26T05:00:55;7.20;99.90
84807;DHT22;75042;43.504;3.714;2024-02-26T05:03:21;7.20;99.90
84807;DHT22;75042;43.504;3.714;2024-02-26T05:05:46;7.20;99.90
84807;DHT22;75042;43.504;3.714;2024-02-26T05:08:12;7.20;99.90
84807;DHT22;75042;43.504;3.714;2024-02-26T05:10:38;7.20;99.90
84807;DHT22;75042;43.504;3.714;2024-02-26T05:13:09;7.10;99.90
84807;DHT22;75042;43.504;3.714;2024-02-26T05:15:35;7.20;99.90
84807;DHT22;75042;43.504;3.714;2024-02-26T05:18:01;7.30;99.90
84807;DHT22;75042;43.504;3.714;2024-02-26T05:20:26;7.30;99.90
84807;DHT22;75042;43.504;3.714;2024-02-26T05:22:52;7.30;99.90
84807;DHT22;75042;43.504;3.714;2024-02-26T05:25:18;7.30;99.90
84807;DHT22;75042;43.504;3.714;2024-02-26T05:27:43;7.30;99.90
84807;DHT22;75042;43.504;3.714;2024-02-26T05:30:09;7.30;99.90
84807;DHT22;75042;43.504;3.714;2024-02-26T05:32:35;7.20;99.90
84807;DHT22;75042;43.504;3.714;2024-02-26T05:35:01;7.20;99.90
84807;DHT22;75042;43.504;3.714;2024-02-26T05:37:29;7.20;99.90
84807;DHT22;75042;43.504;3.714;2024-02-26T05:39:54;7.20;99.90
84807;DHT22;75042;43.504;3.714;2024-02-26T05:42:20;7.10;99.90
84807;DHT22;75042;43.504;3.714;2024-02-26T05:44:46;7.00;99.90
84807;DHT22;75042;43.504;3.714;2024-02-26T05:47:12;6.90;99.90
84807;DHT22;75042;43.504;3.714;2024-02-26T05:49:38;6.90;99.90
84807;DHT22;75042;43.504;3.714;2024-02-26T05:52:04;6.80;99.90
84807;DHT22;75042;43.504;3.714;2024-02-26T05:54:30;6.70;99.90
84807;DHT22;75042;43.504;3.714;2024-02-26T05:56:56;6.70;99.90
84807;DHT22;75042;43.504;3.714;2024-02-26T05:59:21;6.60;99.90
84807;DHT22;75042;43.504;3.714;2024-02-26T06:01:47;6.50;99.90
84807;DHT22;75042;43.504;3.714;2024-02-26T06:04:12;6.50;99.90
84807;DHT22;75042;43.504;3.714;2024-02-26T06:06:38;6.50;99.90
84807;DHT22;75042;43.504;3.714;2024-02-26T06:09:04;6.50;99.90
84807;DHT22;75042;43.504;3.714;2024-02-26T06:11:30;6.50;99.90
84807;DHT22;75042;43.504;3.714;2024-02-26T06:13:56;6.40;99.90
84807;DHT22;75042;43.504;3.714;2024-02-26T06:16:22;6.40;99.90
84807;DHT22;75042;43.504;3.714;2024-02-26T06:18:47;6.30;99.90
84807;DHT22;75042;43.504;3.714;2024-02-26T06:21:13;6.30;99.90
84807;DHT22;75042;43.504;3.714;2024-02-26T06:23:39;6.20;99.90
84807;DHT22;75042;43.504;3.714;2024-02-26T06:26:05;6.20;99.90
84807;DHT22;75042;43.504;3.714;2024-02-26T06:28:31;6.20;99.90
84807;DHT22;75042;43.504;3.714;2024-02-26T06:30:59;6.20;99.90
84807;DHT22;75042;43.504;3.714;2024-02-26T06:33:24;6.20;99.90
84807;DHT22;75042;43.504;3.714;2024-02-26T06:35:50;6.20;99.90
84807;DHT22;75042;43.504;3.714;2024-02-26T06:38:15;6.20;99.90
84807;DHT22;75042;43.504;3.714;2024-02-26T06:40:43;6.20;99.90
84807;DHT22;75042;43.504;3.714;2024-02-26T06:43:09;6.30;99.90
84807;DHT22;75042;43.504;3.714;2024-02-26T06:45:34;6.30;99.90
84807;DHT22;75042;43.504;3.714;2024-02-26T06:48:00;6.40;99.90
84807;DHT22;75042;43.504;3.714;2024-02-26T06:50:26;6.50;99.90
84807;DHT22;75042;43.504;3.714;2024-02-26T06:52:51;6.50;99.90
84807;DHT22;75042;43.504;3.714;2024-02-26T06:55:17;6.60;99.90
84807;DHT22;75042;43.504;3.714;2024-02-26T06:57:42;6.60;99.90
84807;DHT22;75042;43.504;3.714;2024-02-26T07:00:08;6.60;99.90
84807;DHT22;75042;43.504;3.714;2024-02-26T07:02:34;6.60;99.90
84807;DHT22;75042;43.504;3.714;2024-02-26T07:04:59;6.60;99.90
84807;DHT22;75042;43.504;3.714;2024-02-26T07:07:25;6.60;99.90
84807;DHT22;75042;43.504;3.714;2024-02-26T07:09:51;6.70;99.90
84807;DHT22;75042;43.504;3.714;2024-02-26T07:12:17;6.80;99.90
84807;DHT22;75042;43.504;3.714;2024-02-26T07:14:42;6.90;99.90
84807;DHT22;75042;43.504;3.714;2024-02-26T07:17:08;7.00;99.90
84807;DHT22;75042;43.504;3.714;2024-02-26T07:19:34;7.00;99.90
84807;DHT22;75042;43.504;3.714;2024-02-26T07:21:59;7.10;99.90
84807;DHT22;75042;43.504;3.714;2024-02-26T07:24:27;7.20;99.90
84807;DHT22;75042;43.504;3.714;2024-02-26T07:26:53;7.30;99.90
84807;DHT22;75042;43.504;3.714;2024-02-26T07:29:19;7.50;99.90
84807;DHT22;75042;43.504;3.714;2024-02-26T07:31:46;7.50;99.90
84807;DHT22;75042;43.504;3.714;2024-02-26T07:34:11;7.60;99.90
84807;DHT22;75042;43.504;3.714;2024-02-26T07:36:37;7.60;99.90
84807;DHT22;75042;43.504;3.714;2024-02-26T07:39:03;7.70;99.90
84807;DHT22;75042;43.504;3.714;2024-02-26T07:41:28;7.70;99.90
84807;DHT22;75042;43.504;3.714;2024-02-26T07:43:54;7.70;99.90
84807;DHT22;75042;43.504;3.714;2024-02-26T07:46:19;7.70;99.90
84807;DHT22;75042;43.504;3.714;2024-02-26T07:48:45;7.70;99.90
84807;DHT22;75042;43.504;3.714;2024-02-26T07:51:13;7.80;99.90
84807;DHT22;75042;43.504;3.714;2024-02-26T07:53:42;7.80;99.90
84807;DHT22;75042;43.504;3.714;2024-02-26T07:56:08;7.80;99.90
84807;DHT22;75042;43.504;3.714;2024-02-26T07:58:34;7.80;99.90
84807;DHT22;75042;43.504;3.714;2024-02-26T08:00:59;7.90;99.90
84807;DHT22;75042;43.504;3.714;2024-02-26T08:03:25;8.00;99.90
84807;DHT22;75042;43.504;3.714;2024-02-26T08:05:51;8.10;99.90
84807;DHT22;75042;43.504;3.714;2024-02-26T08:08:16;8.20;99.90
84807;DHT22;75042;43.504;3.714;2024-02-26T08:10:42;8.40;99.90
84807;DHT22;75042;43.504;3.714;2024-02-26T08:13:08;8.50;99.90
84807;DHT22;75042;43.504;3.714;2024-02-26T08:15:34;8.80;99.90
84807;DHT22;75042;43.504;3.714;2024-02-26T08:18:00;9.20;99.90
84807;DHT22;75042;43.504;3.714;2024-02-26T08:20:28;9.50;99.90
84807;DHT22;75042;43.504;3.714;2024-02-26T08:22:53;9.90;99.90
84807;DHT22;75042;43.504;3.714;2024-02-26T08:25:19;10.20;99.90
84807;DHT22;75042;43.504;3.714;2024-02-26T08:27:44;10.30;98.10
84807;DHT22;75042;43.504;3.714;2024-02-26T08:30:10;10.60;96.70
84807;DHT22;75042;43.504;3.714;2024-02-26T08:32:38;11.10;94.80
84807;DHT22;75042;43.504;3.714;2024-02-26T08:35:04;11.80;90.50
84807;DHT22;75042;43.504;3.714;2024-02-26T08:37:30;13.60;83.60
84807;DHT22;75042;43.504;3.714;2024-02-26T08:39:55;15.50;71.70
84807;DHT22;75042;43.504;3.714;2024-02-26T08:42:21;16.60;65.00
84807;DHT22;75042;43.504;3.714;2024-02-26T08:44:49;17.00;60.60
84807;DHT22;75042;43.504;3.714;2024-02-26T08:47:15;16.90;60.90
84807;DHT22;75042;43.504;3.714;2024-02-26T08:49:46;16.30;60.70
84807;DHT22;75042;43.504;3.714;2024-02-26T08:52:12;15.00;66.50
84807;DHT22;75042;43.504;3.714;2024-02-26T08:54:39;14.50;69.80
84807;DHT22;75042;43.504;3.714;2024-02-26T08:57:04;14.30;71.10
84807;DHT22;75042;43.504;3.714;2024-02-26T08:59:30;14.50;69.00
84807;DHT22;75042;43.504;3.714;2024-02-26T09:01:56;14.10;70.10
84807;DHT22;75042;43.504;3.714;2024-02-26T09:04:22;16.00;64.80
84807;DHT22;75042;43.504;3.714;2024-02-26T09:06:47;17.50;59.00
84807;DHT22;75042;43.504;3.714;2024-02-26T09:09:14;18.00;57.40
84807;DHT22;75042;43.504;3.714;2024-02-26T09:11:39;17.80;55.20
84807;DHT22;75042;43.504;3.714;2024-02-26T09:14:05;17.30;56.50
84807;DHT22;75042;43.504;3.714;2024-02-26T09:16:31;17.60;59.70
84807;DHT22;75042;43.504;3.714;2024-02-26T09:18:56;18.40;56.00
84807;DHT22;75042;43.504;3.714;2024-02-26T09:21:22;18.00;55.80
84807;DHT22;75042;43.504;3.714;2024-02-26T09:23:53;17.40;59.90
84807;DHT22;75042;43.504;3.714;2024-02-26T09:26:19;17.30;60.60
84807;DHT22;75042;43.504;3.714;2024-02-26T09:28:45;16.20;59.40
84807;DHT22;75042;43.504;3.714;2024-02-26T09:31:11;15.70;66.40
84807;DHT22;75042;43.504;3.714;2024-02-26T09:33:36;15.60;66.20
84807;DHT22;75042;43.504;3.714;2024-02-26T09:36:02;15.60;67.20
84807;DHT22;75042;43.504;3.714;2024-02-26T09:38:28;15.10;67.50
84807;DHT22;75042;43.504;3.714;2024-02-26T09:40:57;14.90;68.30
84807;DHT22;75042;43.504;3.714;2024-02-26T09:43:23;15.00;69.20
84807;DHT22;75042;43.504;3.714;2024-02-26T09:45:55;15.10;70.10
84807;DHT22;75042;43.504;3.714;2024-02-26T09:48:20;14.80;69.80
84807;DHT22;75042;43.504;3.714;2024-02-26T09:50:47;14.90;71.10
84807;DHT22;75042;43.504;3.714;2024-02-26T09:53:13;14.50;69.60
84807;DHT22;75042;43.504;3.714;2024-02-26T09:55:40;13.80;75.00
84807;DHT22;75042;43.504;3.714;2024-02-26T09:58:06;13.90;74.70
84807;DHT22;75042;43.504;3.714;2024-02-26T10:00:32;13.80;74.30
84807;DHT22;75042;43.504;3.714;2024-02-26T10:03:03;14.10;74.10
84807;DHT22;75042;43.504;3.714;2024-02-26T10:05:29;14.00;70.90
84807;DHT22;75042;43.504;3.714;2024-02-26T10:07:56;13.70;70.90
84807;DHT22;75042;43.504;3.714;2024-02-26T10:10:22;13.50;74.10
84807;DHT22;75042;43.504;3.714;2024-02-26T10:12:48;13.40;73.70
84807;DHT22;75042;43.504;3.714;2024-02-26T10:15:14;13.40;74.30
84807;DHT22;75042;43.504;3.714;2024-02-26T10:17:39;13.30;75.70
84807;DHT22;75042;43.504;3.714;2024-02-26T10:20:24;13.60;74.50
84807;DHT22;75042;43.504;3.714;2024-02-26T10:22:51;13.70;73.80
84807;DHT22;75042;43.504;3.714;2024-02-26T10:25:17;13.60;74.10
84807;DHT22;75042;43.504;3.714;2024-02-26T10:27:43;13.40;74.20
84807;DHT22;75042;43.504;3.714;2024-02-26T10:30:22;13.20;74.80
84807;DHT22;75042;43.504;3.714;2024-02-26T10:32:51;13.00;75.80
84807;DHT22;75042;43.504;3.714;2024-02-26T10:35:17;13.00;77.20
84807;DHT22;75042;43.504;3.714;2024-02-26T10:37:43;12.80;78.40
84807;DHT22;75042;43.504;3.714;2024-02-26T10:40:09;12.90;78.60
84807;DHT22;75042;43.504;3.714;2024-02-26T10:42:35;12.60;79.30
84807;DHT22;75042;43.504;3.714;2024-02-26T10:45:01;12.70;79.90
84807;DHT22;75042;43.504;3.714;2024-02-26T10:47:28;12.60;79.00
84807;DHT22;75042;43.504;3.714;2024-02-26T10:49:54;12.50;78.40
84807;DHT22;75042;43.504;3.714;2024-02-26T10:52:19;12.60;79.30
84807;DHT22;75042;43.504;3.714;2024-02-26T10:54:47;12.80;78.30
84807;DHT22;75042;43.504;3.714;2024-02-26T10:57:16;12.90;75.80
84807;DHT22;75042;43.504;3.714;2024-02-26T10:59:43;13.10;75.90
84807;DHT22;75042;43.504;3.714;2024-02-26T11:02:09;13.00;75.30
84807;DHT22;75042;43.504;3.714;2024-02-26T11:04:35;12.70;74.90
84807;DHT22;75042;43.504;3.714;2024-02-26T11:07:02;12.70;77.20
84807;DHT22;75042;43.504;3.714;2024-02-26T11:09:28;13.00;75.70
84807;DHT22;75042;43.504;3.714;2024-02-26T11:11:53;13.10;75.50
84807;DHT22;75042;43.504;3.714;2024-02-26T11:14:20;13.00;75.10
84807;DHT22;75042;43.504;3.714;2024-02-26T11:16:46;12.90;75.40
84807;DHT22;75042;43.504;3.714;2024-02-26T11:19:12;12.90;76.20
84807;DHT22;75042;43.504;3.714;2024-02-26T11:21:39;12.60;76.00
84807;DHT22;75042;43.504;3.714;2024-02-26T11:24:07;12.40;77.30
84807;DHT22;75042;43.504;3.714;2024-02-26T11:26:45;12.40;78.90
84807;DHT22;75042;43.504;3.714;2024-02-26T11:29:13;12.50;80.20
84807;DHT22;75042;43.504;3.714;2024-02-26T11:31:40;12.50;80.10
84807;DHT22;75042;43.504;3.714;2024-02-26T11:34:07;12.50;79.50
84807;DHT22;75042;43.504;3.714;2024-02-26T11:36:34;12.50;78.40
84807;DHT22;75042;43.504;3.714;2024-02-26T11:38:59;12.30;79.50
84807;DHT22;75042;43.504;3.714;2024-02-26T11:41:25;12.20;79.20
84807;DHT22;75042;43.504;3.714;2024-02-26T11:43:51;12.20;79.60
84807;DHT22;75042;43.504;3.714;2024-02-26T11:49:30;12.10;80.70
84807;DHT22;75042;43.504;3.714;2024-02-26T11:51:53;12.10;80.80
84807;DHT22;75042;43.504;3.714;2024-02-26T11:57:19;12.20;80.70
84807;DHT22;75042;43.504;3.714;2024-02-26T11:59:44;12.30;78.50
84807;DHT22;75042;43.504;3.714;2024-02-26T12:02:10;12.60;78.20
84807;DHT22;75042;43.504;3.714;2024-02-26T12:04:38;13.10;75.20
84807;DHT22;75042;43.504;3.714;2024-02-26T12:07:03;13.60;72.70
84807;DHT22;75042;43.504;3.714;2024-02-26T12:11:56;13.80;69.50
84807;DHT22;75042;43.504;3.714;2024-02-26T12:14:25;14.10;70.90
84807;DHT22;75042;43.504;3.714;2024-02-26T12:16:50;15.60;64.80
84807;DHT22;75042;43.504;3.714;2024-02-26T12:19:16;15.60;60.40
84807;DHT22;75042;43.504;3.714;2024-02-26T12:21:42;15.00;61.20
84807;DHT22;75042;43.504;3.714;2024-02-26T12:24:09;14.70;62.20
84807;DHT22;75042;43.504;3.714;2024-02-26T12:26:35;14.50;63.40
84807;DHT22;75042;43.504;3.714;2024-02-26T12:29:01;14.10;64.30
84807;DHT22;75042;43.504;3.714;2024-02-26T12:31:26;13.50;66.40
84807;DHT22;75042;43.504;3.714;2024-02-26T12:33:54;13.20;67.60
84807;DHT22;75042;43.504;3.714;2024-02-26T12:36:20;13.30;68.60
84807;DHT22;75042;43.504;3.714;2024-02-26T12:38:46;13.30;68.90
84807;DHT22;75042;43.504;3.714;2024-02-26T12:41:11;13.50;69.70
84807;DHT22;75042;43.504;3.714;2024-02-26T12:43:37;13.60;67.60
84807;DHT22;75042;43.504;3.714;2024-02-26T12:46:03;14.00;66.10
84807;DHT22;75042;43.504;3.714;2024-02-26T12:48:29;14.20;65.40
84807;DHT22;75042;43.504;3.714;2024-02-26T12:50:54;14.40;65.10
84807;DHT22;75042;43.504;3.714;2024-02-26T12:53:21;14.40;65.40
84807;DHT22;75042;43.504;3.714;2024-02-26T12:55:47;14.50;65.10
84807;DHT22;75042;43.504;3.714;2024-02-26T12:58:13;14.50;64.00
84807;DHT22;75042;43.504;3.714;2024-02-26T13:00:39;14.30;62.90
84807;DHT22;75042;43.504;3.714;2024-02-26T13:03:06;14.80;64.70
84807;DHT22;75042;43.504;3.714;2024-02-26T13:05:31;15.10;58.60
84807;DHT22;75042;43.504;3.714;2024-02-26T13:07:57;15.30;60.30
84807;DHT22;75042;43.504;3.714;2024-02-26T13:10:23;15.10;59.90
84807;DHT22;75042;43.504;3.714;2024-02-26T13:12:50;15.00;60.70
84807;DHT22;75042;43.504;3.714;2024-02-26T13:15:16;15.40;60.60
84807;DHT22;75042;43.504;3.714;2024-02-26T13:17:42;15.80;59.70
84807;DHT22;75042;43.504;3.714;2024-02-26T13:20:08;15.50;56.40
84807;DHT22;75042;43.504;3.714;2024-02-26T13:22:35;15.80;56.70
84807;DHT22;75042;43.504;3.714;2024-02-26T13:25:01;15.10;53.50
84807;DHT22;75042;43.504;3.714;2024-02-26T13:27:28;14.90;57.30
84807;DHT22;75042;43.504;3.714;2024-02-26T13:32:34;14.90;55.00
84807;DHT22;75042;43.504;3.714;2024-02-26T13:35:04;14.90;56.60
84807;DHT22;75042;43.504;3.714;2024-02-26T13:37:30;14.70;59.90
84807;DHT22;75042;43.504;3.714;2024-02-26T13:39:56;14.30;61.40
84807;DHT22;75042;43.504;3.714;2024-02-26T13:42:21;14.20;61.00
84807;DHT22;75042;43.504;3.714;2024-02-26T13:44:47;14.10;61.70
84807;DHT22;75042;43.504;3.714;2024-02-26T13:47:12;13.80;61.90
84807;DHT22;75042;43.504;3.714;2024-02-26T13:49:38;13.70;62.60
84807;DHT22;75042;43.504;3.714;2024-02-26T13:52:04;13.70;64.20
84807;DHT22;75042;43.504;3.714;2024-02-26T13:54:29;13.70;64.40
84807;DHT22;75042;43.504;3.714;2024-02-26T13:56:55;13.50;62.00
84807;DHT22;75042;43.504;3.714;2024-02-26T13:59:20;13.50;61.80
84807;DHT22;75042;43.504;3.714;2024-02-26T14:01:46;13.50;63.00
84807;DHT22;75042;43.504;3.714;2024-02-26T14:04:11;13.50;64.60
84807;DHT22;75042;43.504;3.714;2024-02-26T14:06:37;13.40;63.90
84807;DHT22;75042;43.504;3.714;2024-02-26T14:09:04;13.30;63.90
84807;DHT22;75042;43.504;3.714;2024-02-26T14:11:29;13.20;64.20
84807;DHT22;75042;43.504;3.714;2024-02-26T14:13:56;13.20;64.90
84807;DHT22;75042;43.504;3.714;2024-02-26T14:16:22;13.20;65.40
84807;DHT22;75042;43.504;3.714;2024-02-26T14:18:47;13.30;66.60
84807;DHT22;75042;43.504;3.714;2024-02-26T14:21:13;13.50;67.50
84807;DHT22;75042;43.504;3.714;2024-02-26T14:23:39;13.60;66.20
84807;DHT22;75042;43.504;3.714;2024-02-26T14:26:04;13.90;66.20
84807;DHT22;75042;43.504;3.714;2024-02-26T14:28:30;14.10;64.30
84807;DHT22;75042;43.504;3.714;2024-02-26T14:30:57;14.00;64.40
84807;DHT22;75042;43.504;3.714;2024-02-26T14:33:22;13.80;65.50
84807;DHT22;75042;43.504;3.714;2024-02-26T14:35:48;14.00;68.00
84807;DHT22;75042;43.504;3.714;2024-02-26T14:38:13;14.10;66.40
84807;DHT22;75042;43.504;3.714;2024-02-26T14:40:39;14.40;66.80
84807;DHT22;75042;43.504;3.714;2024-02-26T14:43:05;14.30;65.70
84807;DHT22;75042;43.504;3.714;2024-02-26T14:45:30;14.10;66.90
84807;DHT22;75042;43.504;3.714;2024-02-26T14:47:57;14.20;67.50
84807;DHT22;75042;43.504;3.714;2024-02-26T14:50:23;14.20;65.10
84807;DHT22;75042;43.504;3.714;2024-02-26T14:52:48;13.90;64.30
84807;DHT22;75042;43.504;3.714;2024-02-26T14:55:14;13.80;65.90
84807;DHT22;75042;43.504;3.714;2024-02-26T14:57:39;13.80;65.60
84807;DHT22;75042;43.504;3.714;2024-02-26T15:00:06;14.10;65.90
84807;DHT22;75042;43.504;3.714;2024-02-26T15:02:32;14.00;62.70
84807;DHT22;75042;43.504;3.714;2024-02-26T15:04:57;14.10;62.90
84807;DHT22;75042;43.504;3.714;2024-02-26T15:07:23;14.20;61.20
84807;DHT22;75042;43.504;3.714;2024-02-26T15:09:49;14.30;61.30
84807;DHT22;75042;43.504;3.714;2024-02-26T15:12:14;14.30;60.60
84807;DHT22;75042;43.504;3.714;2024-02-26T15:14:42;14.30;61.80
84807;DHT22;75042;43.504;3.714;2024-02-26T15:17:10;14.10;63.70
84807;DHT22;75042;43.504;3.714;2024-02-26T15:19:38;14.20;65.00
84807;DHT22;75042;43.504;3.714;2024-02-26T15:22:04;14.10;66.30
84807;DHT22;75042;43.504;3.714;2024-02-26T15:24:30;14.10;68.10
84807;DHT22;75042;43.504;3.714;2024-02-26T15:26:55;14.10;67.50
84807;DHT22;75042;43.504;3.714;2024-02-26T15:29:22;14.20;68.80
84807;DHT22;75042;43.504;3.714;2024-02-26T15:31:48;14.00;66.10
84807;DHT22;75042;43.504;3.714;2024-02-26T15:34:13;13.90;67.00
84807;DHT22;75042;43.504;3.714;2024-02-26T15:36:41;14.00;69.80
84807;DHT22;75042;43.504;3.714;2024-02-26T15:39:07;14.10;70.20
84807;DHT22;75042;43.504;3.714;2024-02-26T15:41:33;13.80;69.00
84807;DHT22;75042;43.504;3.714;2024-02-26T15:43:58;13.80;71.00